Time;durP1;ratioP1;P1;durP2;ratioP2;P2;SDS_P1;SDS_P2;PMS_P1;PMS_P2;Temp;Humidity;BMP_temperature;BMP_pressure;BME280_temperature;BME280_humidity;BME280_pressure;Samples;Min_cycle;Max_cycle;Signal;HPM_P1;HPM_P2
2021/05/14 08:55:56;;;;;;;4.40;0.90;;;17.90;99.90;;;;;;4966733;23;20589;-69
2021/05/14 08:58:23;;;;;;;1.70;1.00;;;17.40;99.90;;;;;;4974962;28;20609;-69
2021/05/14 09:00:49;;;;;;;2.10;0.97;;;17.30;99.90;;;;;;4974944;28;20725;-70
2021/05/14 09:03:15;;;;;;;1.37;0.87;;;17.20;99.90;;;;;;4974635;28;20290;-69
2021/05/14 09:05:43;;;;;;;2.13;0.80;;;17.30;99.90;;;;;;4974989;28;20211;-69
2021/05/14 09:08:09;;;;;;;3.80;1.00;;;17.60;99.90;;;;;;4975025;28;20238;-69
2021/05/14 09:10:35;;;;;;;6.97;1.10;;;17.80;99.90;;;;;;4974173;28;20203;-69
2021/05/14 09:13:11;;;;;;;3.93;1.10;;;17.90;99.90;;;;;;4974782;28;20286;-69
2021/05/14 09:15:40;;;;;;;1.80;1.20;;;17.80;99.90;;;;;;4974562;28;20210;-69
2021/05/14 09:18:12;;;;;;;3.30;1.40;;;17.80;99.90;;;;;;4974574;28;20321;-69
2021/05/14 09:20:40;;;;;;;1.23;1.10;;;17.50;99.90;;;;;;4974662;28;20307;-69
2021/05/14 09:23:32;;;;;;;3.27;1.90;;;17.50;99.90;;;;;;4973992;28;20227;-69
2021/05/14 09:26:00;;;;;;;5.10;1.57;;;17.60;99.90;;;;;;4973875;28;20215;-68
2021/05/14 09:28:29;;;;;;;2.20;1.53;;;17.30;99.90;;;;;;4974560;28;20207;-69
2021/05/14 09:31:07;;;;;;;2.00;1.23;;;17.20;99.90;;;;;;4973835;28;20212;-69
2021/05/14 09:33:34;;;;;;;3.37;1.80;;;17.00;99.90;;;;;;4974853;28;20705;-69
2021/05/14 09:36:04;;;;;;;3.97;1.63;;;17.10;99.90;;;;;;4974649;28;20215;-70
2021/05/14 09:38:39;;;;;;;3.73;1.90;;;17.10;99.90;;;;;;4973640;28;20208;-69
2021/05/14 09:41:06;;;;;;;2.50;1.80;;;16.90;99.90;;;;;;4974223;28;20215;-70
2021/05/14 09:43:53;;;;;;;3.10;1.90;;;16.90;99.90;;;;;;4973693;28;20231;-70
2021/05/14 09:46:31;;;;;;;2.57;1.80;;;17.10;99.90;;;;;;4973964;28;20211;-69
2021/05/14 09:48:59;;;;;;;2.83;1.73;;;17.30;99.90;;;;;;4973983;28;20215;-69
2021/05/14 09:51:27;;;;;;;2.90;2.00;;;17.30;99.90;;;;;;4973962;28;20211;-69
2021/05/14 09:53:53;;;;;;;3.27;1.80;;;17.30;99.90;;;;;;4974014;28;20646;-69
2021/05/14 09:56:27;;;;;;;2.63;1.90;;;17.30;99.90;;;;;;4973845;28;20246;-69
2021/05/14 09:58:56;;;;;;;3.13;2.03;;;17.50;99.90;;;;;;4973877;28;20204;-69
2021/05/14 10:01:24;;;;;;;2.63;2.00;;;17.60;99.90;;;;;;4973497;28;20551;-69
2021/05/14 10:03:51;;;;;;;2.87;1.80;;;17.80;99.90;;;;;;4974561;28;20234;-70
2021/05/14 10:06:19;;;;;;;3.63;1.97;;;18.10;99.90;;;;;;4974250;28;20219;-69
2021/05/14 10:08:50;;;;;;;2.93;1.90;;;18.30;99.90;;;;;;4973626;28;20214;-69
2021/05/14 10:11:17;;;;;;;3.40;1.90;;;18.70;99.90;;;;;;4973826;28;20214;-70
2021/05/14 10:13:44;;;;;;;6.03;1.70;;;19.20;99.90;;;;;;4973351;28;20285;-69
2021/05/14 10:16:11;;;;;;;3.77;1.50;;;19.50;99.90;;;;;;4973479;28;20214;-71
2021/05/14 10:18:42;;;;;;;1.50;0.93;;;19.60;99.90;;;;;;4973585;28;20209;-69
2021/05/14 10:21:10;;;;;;;2.00;0.80;;;19.30;99.70;;;;;;4973302;28;20212;-69
2021/05/14 10:23:37;;;;;;;1.50;0.87;;;19.40;99.40;;;;;;4973135;28;20242;-69
2021/05/14 10:26:07;;;;;;;0.88;0.55;;;19.60;99.30;;;;;;4973592;28;20215;-70
2021/05/14 10:28:39;;;;;;;1.27;0.53;;;19.60;99.90;;;;;;4973252;28;20501;-69
2021/05/14 10:31:19;;;;;;;1.07;0.63;;;19.80;98.60;;;;;;4973275;28;20207;-70
2021/05/14 10:33:47;;;;;;;2.45;0.82;;;20.30;99.10;;;;;;4973335;28;20231;-70
2021/05/14 10:36:42;;;;;;;1.55;1.10;;;20.50;97.80;;;;;;4973522;28;20207;-69
2021/05/14 10:39:10;;;;;;;0.77;0.60;;;20.20;99.90;;;;;;4973122;28;20570;-71
2021/05/14 10:42:06;;;;;;;1.90;0.80;;;20.00;99.90;;;;;;4973048;28;20207;-70
2021/05/14 10:44:49;;;;;;;0.80;0.50;;;18.90;99.90;;;;;;4973075;28;20207;-71
2021/05/14 10:47:47;;;;;;;1.33;0.60;;;18.50;99.90;;;;;;4972571;28;20214;-70
2021/05/14 10:50:30;;;;;;;3.03;0.80;;;18.40;99.90;;;;;;4973213;28;20219;-70
2021/05/14 10:53:19;;;;;;;2.40;0.60;;;18.40;99.90;;;;;;4972960;28;20618;-70
2021/05/14 10:55:46;;;;;;;1.20;0.60;;;18.00;99.90;;;;;;4973686;28;20241;-70
2021/05/14 10:58:41;;;;;;;1.73;0.90;;;17.50;99.90;;;;;;4969796;28;20244;-69
2021/05/14 11:01:26;;;;;;;1.07;0.90;;;16.90;99.90;;;;;;4973358;28;20214;-68
2021/05/14 11:03:53;;;;;;;2.40;0.70;;;16.80;99.90;;;;;;4973553;28;20215;-74
2021/05/14 11:06:19;;;;;;;1.33;0.60;;;16.50;99.90;;;;;;4974182;28;20581;-76
2021/05/14 11:09:02;;;;;;;1.63;0.90;;;16.50;99.90;;;;;;4974369;28;20211;-75
2021/05/14 11:11:28;;;;;;;1.40;0.80;;;16.60;99.90;;;;;;4973965;28;20665;-72
2021/05/14 11:13:55;;;;;;;2.23;1.10;;;16.80;99.90;;;;;;4974469;28;20649;-73
2021/05/14 11:16:32;;;;;;;2.00;0.90;;;17.00;99.90;;;;;;4974108;28;20218;-70
2021/05/14 11:19:08;;;;;;;2.13;1.00;;;17.00;99.90;;;;;;4974296;28;20211;-68
2021/05/14 11:21:58;;;;;;;1.50;1.10;;;16.70;99.90;;;;;;4960715;28;20212;-67
2021/05/14 11:24:28;;;;;;;2.50;1.10;;;16.50;99.90;;;;;;4948625;29;20746;-67
2021/05/14 11:27:02;;;;;;;2.33;0.87;;;16.60;99.90;;;;;;4954435;29;20278;-70
2021/05/14 11:29:33;;;;;;;1.97;1.00;;;16.90;99.90;;;;;;4954348;29;20208;-68
2021/05/14 11:32:30;;;;;;;1.47;0.80;;;17.10;99.90;;;;;;4965756;28;20227;-69
2021/05/14 11:35:09;;;;;;;2.13;0.93;;;17.40;99.90;;;;;;4973384;28;20242;-70
2021/05/14 11:37:39;;;;;;;1.73;0.83;;;17.20;99.90;;;;;;4973782;28;20776;-70
2021/05/14 11:40:12;;;;;;;2.43;1.10;;;17.10;99.90;;;;;;4964677;28;20232;-68
2021/05/14 11:42:42;;;;;;;2.37;0.73;;;17.30;99.90;;;;;;4971014;28;20231;-72
2021/05/14 11:45:11;;;;;;;1.43;0.93;;;17.50;99.90;;;;;;4974182;28;20594;-71
2021/05/14 11:47:43;;;;;;;1.43;0.87;;;17.60;99.90;;;;;;4973126;28;20223;-71
2021/05/14 11:50:11;;;;;;;1.87;1.00;;;17.50;99.90;;;;;;4973719;28;20207;-70
2021/05/14 11:52:39;;;;;;;2.00;0.93;;;17.00;99.90;;;;;;4957168;28;20239;-72
2021/05/14 11:55:09;;;;;;;1.73;1.00;;;16.80;99.90;;;;;;4954173;29;20216;-71
2021/05/14 11:57:36;;;;;;;3.20;1.10;;;16.60;99.90;;;;;;4954055;29;20235;-69
2021/05/14 12:00:06;;;;;;;4.10;1.30;;;16.30;99.90;;;;;;4954185;29;20681;-72
2021/05/14 12:02:40;;;;;;;1.20;0.80;;;16.40;99.90;;;;;;4970226;28;20227;-71
2021/05/14 12:05:11;;;;;;;2.60;1.07;;;16.50;99.90;;;;;;4973964;28;20259;-71
2021/05/14 12:07:39;;;;;;;2.77;0.70;;;16.40;99.90;;;;;;4976933;28;20215;-69
2021/05/14 12:10:07;;;;;;;2.00;0.70;;;16.30;99.90;;;;;;4976938;28;20207;-68
2021/05/14 12:12:37;;;;;;;1.07;0.60;;;16.40;99.90;;;;;;4976865;28;20301;-71
2021/05/14 12:15:19;;;;;;;1.33;0.80;;;16.50;99.90;;;;;;4977256;28;20211;-67
2021/05/14 12:17:47;;;;;;;1.23;0.60;;;16.50;99.90;;;;;;4958207;28;20231;-72
2021/05/14 12:20:26;;;;;;;1.53;0.83;;;16.50;99.90;;;;;;4957301;28;20548;-71
2021/05/14 12:22:54;;;;;;;1.30;0.77;;;16.50;99.90;;;;;;4976132;28;20231;-70
2021/05/14 12:25:21;;;;;;;1.73;0.60;;;16.60;99.90;;;;;;4976889;28;20215;-69
2021/05/14 12:27:48;;;;;;;1.50;0.80;;;16.90;99.90;;;;;;4976599;28;20689;-67
2021/05/14 12:30:16;;;;;;;0.97;0.70;;;17.30;99.90;;;;;;4976754;28;20207;-69
2021/05/14 12:32:53;;;;;;;1.73;0.70;;;17.80;99.90;;;;;;4976262;28;20230;-67
2021/05/14 12:35:21;;;;;;;1.80;1.10;;;18.00;99.90;;;;;;4976707;28;20210;-69
2021/05/14 12:37:53;;;;;;;2.47;1.00;;;18.00;99.90;;;;;;4976914;28;20265;-68
2021/05/14 12:40:31;;;;;;;1.10;0.70;;;17.90;99.90;;;;;;4976933;28;20207;-69
2021/05/14 12:43:28;;;;;;;1.23;0.63;;;17.80;99.90;;;;;;4937947;29;20236;-69
2021/05/14 12:46:04;;;;;;;1.57;0.80;;;17.80;99.90;;;;;;4936886;29;20216;-68
2021/05/14 12:48:30;;;;;;;2.97;1.17;;;17.80;99.90;;;;;;4952555;29;20222;-68
2021/05/14 12:50:57;;;;;;;2.47;1.03;;;17.90;99.90;;;;;;4960315;28;20207;-69
2021/05/14 12:53:24;;;;;;;1.83;1.33;;;18.40;99.90;;;;;;4976291;28;20231;-68
2021/05/14 12:55:50;;;;;;;2.53;1.40;;;18.30;99.90;;;;;;4975964;28;20214;-68
2021/05/14 12:58:16;;;;;;;2.00;1.20;;;18.50;99.90;;;;;;4955643;28;20243;-68
2021/05/14 13:00:42;;;;;;;2.03;1.30;;;18.10;99.90;;;;;;4956992;29;20212;-68
2021/05/14 13:03:10;;;;;;;1.80;1.10;;;17.90;99.90;;;;;;4956824;29;20220;-68
2021/05/14 13:05:38;;;;;;;1.77;1.20;;;17.50;99.90;;;;;;4956405;29;20683;-68
2021/05/14 13:08:06;;;;;;;1.80;1.03;;;17.50;99.90;;;;;;4970752;28;20234;-68
2021/05/14 13:10:38;;;;;;;2.20;1.40;;;17.30;99.90;;;;;;4976070;28;20219;-68
2021/05/14 13:13:04;;;;;;;2.33;1.13;;;17.50;99.90;;;;;;4975983;28;20258;-68
2021/05/14 13:15:31;;;;;;;1.60;1.17;;;17.40;99.90;;;;;;4968599;28;20690;-68
2021/05/14 13:17:58;;;;;;;2.50;0.97;;;17.20;99.90;;;;;;4968852;28;20235;-68
2021/05/14 13:20:24;;;;;;;2.40;1.13;;;17.20;99.90;;;;;;4976229;28;20563;-68
2021/05/14 13:22:50;;;;;;;1.87;1.00;;;17.40;99.90;;;;;;4975459;28;20229;-68
2021/05/14 13:25:18;;;;;;;2.03;1.50;;;17.50;99.90;;;;;;4975866;28;20211;-68
2021/05/14 13:27:44;;;;;;;1.87;1.20;;;17.90;99.90;;;;;;4963985;28;20215;-68
2021/05/14 13:30:11;;;;;;;4.30;1.53;;;18.00;99.90;;;;;;4956518;29;20208;-68
2021/05/14 13:32:38;;;;;;;1.50;1.30;;;18.00;99.90;;;;;;4956454;29;20564;-68
2021/05/14 13:35:05;;;;;;;2.30;1.43;;;17.90;99.90;;;;;;4956200;29;20372;-69
2021/05/14 13:37:32;;;;;;;2.30;1.60;;;17.80;99.90;;;;;;4965604;28;20234;-68
2021/05/14 13:39:58;;;;;;;2.30;1.57;;;17.60;99.90;;;;;;4975629;28;20211;-68
2021/05/14 13:42:25;;;;;;;3.97;1.63;;;17.60;99.90;;;;;;4975015;28;20231;-68
2021/05/14 13:44:52;;;;;;;2.87;1.77;;;17.50;99.90;;;;;;4975763;28;20207;-68
2021/05/14 13:47:18;;;;;;;3.50;1.80;;;17.50;99.90;;;;;;4975213;28;20290;-68
2021/05/14 13:49:44;;;;;;;2.07;1.70;;;17.40;99.90;;;;;;4975438;28;20233;-68
2021/05/14 13:52:11;;;;;;;1.90;1.50;;;17.20;99.90;;;;;;4966778;28;20695;-68
2021/05/14 13:54:37;;;;;;;2.57;2.03;;;16.90;99.90;;;;;;4955654;28;20271;-68
2021/05/14 13:57:05;;;;;;;3.53;1.87;;;16.60;99.90;;;;;;4961549;28;20254;-68
2021/05/14 13:59:32;;;;;;;3.47;2.10;;;16.20;99.90;;;;;;4975171;28;20203;-69
2021/05/14 14:01:59;;;;;;;3.50;1.83;;;15.70;99.90;;;;;;4974824;28;20720;-68
2021/05/14 14:04:26;;;;;;;4.00;1.90;;;15.40;99.90;;;;;;4975234;28;20306;-69
2021/05/14 14:06:52;;;;;;;4.50;1.67;;;15.50;99.90;;;;;;4975032;28;20677;-68
2021/05/14 14:09:18;;;;;;;3.80;1.60;;;15.80;99.90;;;;;;4974930;28;20235;-68
2021/05/14 14:11:48;;;;;;;4.07;1.93;;;16.30;99.90;;;;;;4975054;28;20208;-68
2021/05/14 14:14:14;;;;;;;3.10;1.80;;;16.60;99.90;;;;;;4974926;28;20214;-68
2021/05/14 14:16:41;;;;;;;5.50;1.77;;;16.80;99.90;;;;;;4974773;28;20211;-68
2021/05/14 14:19:08;;;;;;;1.70;1.30;;;17.00;99.90;;;;;;4974591;28;20211;-69
2021/05/14 14:21:34;;;;;;;3.37;1.60;;;17.10;99.90;;;;;;4974561;28;20292;-68
2021/05/14 14:24:00;;;;;;;1.63;1.40;;;17.10;99.90;;;;;;4974619;28;20682;-68
2021/05/14 14:26:27;;;;;;;3.73;1.97;;;17.10;99.90;;;;;;4974886;28;20222;-68
2021/05/14 14:28:53;;;;;;;2.70;1.80;;;16.90;99.90;;;;;;4974681;28;20271;-68
2021/05/14 14:31:19;;;;;;;3.67;1.40;;;16.70;99.90;;;;;;4974520;28;20219;-68
2021/05/14 14:33:46;;;;;;;1.70;1.30;;;16.40;99.90;;;;;;4974557;28;20235;-68
2021/05/14 14:36:12;;;;;;;2.90;1.77;;;16.50;99.90;;;;;;4974508;28;20250;-68
2021/05/14 14:38:38;;;;;;;3.60;1.23;;;16.90;99.90;;;;;;4974233;28;21097;-68
2021/05/14 14:41:05;;;;;;;2.10;1.40;;;17.00;99.90;;;;;;4973923;28;20658;-68
2021/05/14 14:43:31;;;;;;;2.80;1.43;;;17.00;99.90;;;;;;4974324;28;20228;-68
2021/05/14 14:45:57;;;;;;;2.30;1.30;;;16.70;99.90;;;;;;4974412;28;20568;-68
2021/05/14 14:48:24;;;;;;;2.50;1.23;;;16.80;99.90;;;;;;4974272;28;20218;-68
2021/05/14 14:50:51;;;;;;;2.30;1.40;;;16.90;99.90;;;;;;4974053;28;20203;-69
2021/05/14 14:53:17;;;;;;;2.90;1.40;;;17.00;99.90;;;;;;4974788;28;20721;-68
2021/05/14 14:55:45;;;;;;;1.60;1.33;;;17.10;99.90;;;;;;4974143;28;20215;-68
2021/05/14 14:58:11;;;;;;;2.43;1.47;;;16.70;99.90;;;;;;4974109;28;20235;-68
2021/05/14 15:00:37;;;;;;;4.03;2.53;;;16.60;99.90;;;;;;4974355;28;20207;-69
2021/05/14 15:03:04;;;;;;;2.93;1.80;;;15.90;99.90;;;;;;4974073;28;20234;-70
2021/05/14 15:05:30;;;;;;;3.03;1.90;;;15.50;99.90;;;;;;4973871;28;20207;-70
2021/05/14 15:07:57;;;;;;;5.00;2.13;;;15.40;99.90;;;;;;4974165;28;20207;-70
2021/05/14 15:10:24;;;;;;;5.43;2.10;;;15.30;99.90;;;;;;4974204;28;20203;-70
2021/05/14 15:12:50;;;;;;;4.10;2.20;;;15.40;99.90;;;;;;4974032;28;20239;-70
2021/05/14 15:15:16;;;;;;;2.47;1.83;;;15.20;99.90;;;;;;4974094;28;20353;-71
2021/05/14 15:17:42;;;;;;;4.23;2.10;;;15.10;99.90;;;;;;4973845;28;20710;-70
2021/05/14 15:20:10;;;;;;;3.63;1.80;;;14.70;99.90;;;;;;4974356;28;20211;-70
2021/05/14 15:22:36;;;;;;;2.60;1.83;;;14.40;99.90;;;;;;4974291;28;20234;-70
2021/05/14 15:25:04;;;;;;;3.93;1.83;;;14.20;99.90;;;;;;4973895;28;20214;-70
2021/05/14 15:27:31;;;;;;;2.57;1.73;;;14.10;99.90;;;;;;4973407;28;20211;-70
2021/05/14 15:29:57;;;;;;;2.97;2.00;;;14.10;99.90;;;;;;4973906;28;20207;-70
2021/05/14 15:32:24;;;;;;;2.60;1.60;;;14.10;99.90;;;;;;4973989;28;20230;-70
2021/05/14 15:34:51;;;;;;;2.37;1.70;;;14.30;99.90;;;;;;4973676;28;20203;-70
2021/05/14 15:37:17;;;;;;;2.10;1.90;;;14.40;99.90;;;;;;4973700;28;20268;-70
2021/05/14 15:39:43;;;;;;;2.70;1.80;;;14.40;99.90;;;;;;4974165;28;20229;-70
2021/05/14 15:42:11;;;;;;;3.60;1.87;;;14.20;99.90;;;;;;4977803;28;20586;-69
2021/05/14 15:44:37;;;;;;;4.07;2.10;;;14.20;99.90;;;;;;4977544;28;20214;-70
2021/05/14 15:47:04;;;;;;;2.70;1.93;;;14.40;99.90;;;;;;4977590;28;20257;-70
2021/05/14 15:49:30;;;;;;;3.97;2.50;;;14.30;99.90;;;;;;4977405;28;20207;-70
2021/05/14 15:51:56;;;;;;;2.67;2.00;;;14.40;99.90;;;;;;4977414;28;20250;-70
2021/05/14 15:54:23;;;;;;;4.77;2.33;;;14.50;99.90;;;;;;4977474;28;20214;-70
2021/05/14 15:56:49;;;;;;;2.73;2.00;;;14.50;99.90;;;;;;4977410;28;20207;-70
2021/05/14 15:59:17;;;;;;;4.77;2.07;;;14.60;99.90;;;;;;4977415;28;20211;-70
2021/05/14 16:01:43;;;;;;;2.77;1.90;;;14.50;99.90;;;;;;4977294;28;20269;-70
2021/05/14 16:04:11;;;;;;;3.53;2.20;;;14.50;99.90;;;;;;4977011;28;20211;-70
2021/05/14 16:06:37;;;;;;;5.10;1.93;;;14.70;99.90;;;;;;4977412;28;20203;-69
2021/05/14 16:09:04;;;;;;;2.57;1.90;;;14.80;99.90;;;;;;4977492;28;20211;-69
2021/05/14 16:11:30;;;;;;;3.00;2.10;;;14.90;99.90;;;;;;4976934;28;20217;-70
2021/05/14 16:13:57;;;;;;;2.30;1.53;;;15.10;99.90;;;;;;4977400;28;20357;-70
2021/05/14 16:16:24;;;;;;;3.67;1.80;;;15.30;99.90;;;;;;4977300;28;20286;-69
2021/05/14 16:18:52;;;;;;;2.53;1.80;;;15.50;99.90;;;;;;4977307;28;20238;-69
2021/05/14 16:21:18;;;;;;;2.53;1.80;;;15.60;99.90;;;;;;4977277;28;20306;-69
2021/05/14 16:23:46;;;;;;;2.50;1.40;;;15.60;99.90;;;;;;4977003;28;20228;-69
2021/05/14 16:26:12;;;;;;;1.73;1.37;;;15.50;99.90;;;;;;4976726;28;20696;-69
2021/05/14 16:28:39;;;;;;;1.20;0.87;;;15.60;99.90;;;;;;4976791;28;20689;-69
2021/05/14 16:31:05;;;;;;;1.93;1.00;;;15.40;99.90;;;;;;4976636;28;20207;-69
2021/05/14 16:33:32;;;;;;;2.17;0.93;;;15.60;99.90;;;;;;4976922;28;20234;-69
2021/05/14 16:35:58;;;;;;;2.20;1.00;;;15.80;99.90;;;;;;4976914;28;20214;-69
2021/05/14 16:38:24;;;;;;;1.43;1.03;;;15.90;99.90;;;;;;4976787;28;20238;-69
2021/05/14 16:40:51;;;;;;;1.40;0.80;;;16.00;99.90;;;;;;4976560;28;20261;-69
2021/05/14 16:43:17;;;;;;;1.30;1.00;;;16.10;99.90;;;;;;4976388;28;20226;-69
2021/05/14 16:45:45;;;;;;;1.87;1.10;;;16.00;99.90;;;;;;4976649;28;20203;-68
2021/05/14 16:48:12;;;;;;;2.60;1.10;;;15.90;99.90;;;;;;4976668;28;20214;-68
2021/05/14 16:50:39;;;;;;;1.33;0.93;;;15.80;99.90;;;;;;4976791;28;20211;-68
2021/05/14 16:53:05;;;;;;;1.20;1.00;;;15.80;99.90;;;;;;4975308;28;20223;-69
2021/05/14 16:55:31;;;;;;;1.53;1.00;;;15.70;99.90;;;;;;4976284;28;20211;-68
2021/05/14 16:57:58;;;;;;;0.97;0.70;;;15.60;99.90;;;;;;4976089;28;20269;-68
2021/05/14 17:00:25;;;;;;;1.93;0.70;;;15.50;99.90;;;;;;4976113;28;20678;-69
2021/05/14 17:02:52;;;;;;;1.20;0.90;;;15.50;99.90;;;;;;4976219;28;20705;-68
2021/05/14 17:05:18;;;;;;;2.70;0.90;;;15.60;99.90;;;;;;4976402;28;20574;-68
2021/05/14 17:07:45;;;;;;;1.43;0.83;;;15.60;99.90;;;;;;4976253;28;20208;-69
2021/05/14 17:10:12;;;;;;;1.60;0.87;;;15.50;99.90;;;;;;4976148;28;20650;-69
2021/05/14 17:12:39;;;;;;;1.20;0.80;;;15.60;99.90;;;;;;4975788;28;20231;-68
2021/05/14 17:15:08;;;;;;;3.43;0.87;;;15.70;99.90;;;;;;4976071;28;20208;-68
2021/05/14 17:17:34;;;;;;;1.77;0.90;;;15.70;99.90;;;;;;4975676;28;20710;-68
2021/05/14 17:20:03;;;;;;;2.47;1.00;;;15.40;99.90;;;;;;4976148;28;20207;-68
2021/05/14 17:22:29;;;;;;;1.20;0.90;;;15.20;99.90;;;;;;4975882;28;20231;-68
2021/05/14 17:24:57;;;;;;;1.73;0.90;;;15.20;99.90;;;;;;4975576;28;20211;-68
2021/05/14 17:27:23;;;;;;;2.37;0.97;;;15.40;99.90;;;;;;4975449;28;20617;-68
2021/05/14 17:29:49;;;;;;;1.77;0.90;;;15.60;99.90;;;;;;4975782;28;20626;-68
2021/05/14 17:32:16;;;;;;;1.27;1.00;;;15.80;99.90;;;;;;4975677;28;20567;-68
2021/05/14 17:34:42;;;;;;;1.67;1.07;;;15.90;99.90;;;;;;4975918;28;20208;-69
2021/05/14 17:37:09;;;;;;;1.73;0.90;;;15.90;99.90;;;;;;4975723;28;20622;-69
2021/05/14 17:39:35;;;;;;;1.40;0.70;;;15.90;99.90;;;;;;4975586;28;20658;-69
2021/05/14 17:42:02;;;;;;;1.97;1.07;;;15.80;99.90;;;;;;4975622;28;20238;-69
2021/05/14 17:44:28;;;;;;;1.20;0.80;;;15.90;99.90;;;;;;4975760;28;20215;-69
2021/05/14 17:46:55;;;;;;;1.90;1.23;;;15.90;99.90;;;;;;4975360;28;20211;-68
2021/05/14 17:49:21;;;;;;;2.40;1.23;;;16.00;99.90;;;;;;4975447;28;20218;-69
2021/05/14 17:51:47;;;;;;;3.60;2.40;;;16.00;99.90;;;;;;4975182;28;20235;-69
2021/05/14 17:54:13;;;;;;;2.40;1.73;;;15.90;99.90;;;;;;4975289;28;20203;-69
2021/05/14 17:56:41;;;;;;;2.57;1.37;;;15.90;99.90;;;;;;4974841;28;20537;-69
2021/05/14 17:59:08;;;;;;;2.63;1.60;;;15.80;99.90;;;;;;4975072;28;20239;-69
2021/05/14 18:01:34;;;;;;;2.33;1.87;;;15.50;99.90;;;;;;4975105;28;20217;-69
2021/05/14 18:04:00;;;;;;;3.97;2.17;;;15.40;99.90;;;;;;4975068;28;20274;-69
2021/05/14 18:06:28;;;;;;;4.50;2.10;;;15.30;99.90;;;;;;4975169;28;20211;-69
2021/05/14 18:08:54;;;;;;;3.30;2.13;;;15.20;99.90;;;;;;4974996;28;20210;-69
2021/05/14 18:11:21;;;;;;;3.77;2.40;;;15.00;99.90;;;;;;4975145;28;20331;-69
2021/05/14 18:13:48;;;;;;;5.23;3.00;;;14.90;99.90;;;;;;4974980;28;20231;-69
2021/05/14 18:16:17;;;;;;;3.03;2.20;;;14.70;99.90;;;;;;4974733;28;20206;-69
2021/05/14 18:18:47;;;;;;;5.63;2.67;;;14.60;99.90;;;;;;4974691;28;20231;-69
2021/05/14 18:21:13;;;;;;;3.53;2.43;;;14.60;99.90;;;;;;4974448;28;20226;-70
2021/05/14 18:23:40;;;;;;;3.90;2.27;;;14.60;99.90;;;;;;4953270;28;20318;-70
2021/05/14 18:26:07;;;;;;;4.10;2.80;;;14.60;99.90;;;;;;4955482;29;20590;-72
2021/05/14 18:28:34;;;;;;;7.37;2.73;;;14.60;99.90;;;;;;4955293;29;20208;-72
2021/05/14 18:31:00;;;;;;;7.53;3.90;;;14.50;99.90;;;;;;4954931;29;20219;-73
2021/05/14 18:33:28;;;;;;;7.03;3.73;;;14.50;99.90;;;;;;4955071;29;20322;-71
2021/05/14 18:35:57;;;;;;;4.97;3.10;;;14.30;99.90;;;;;;4955368;29;20204;-71
2021/05/14 18:38:24;;;;;;;4.33;3.07;;;14.10;99.90;;;;;;4955426;29;20603;-72
2021/05/14 18:40:51;;;;;;;4.57;3.33;;;13.90;99.90;;;;;;4952508;28;20214;-72
2021/05/14 18:43:17;;;;;;;4.60;2.70;;;13.50;99.90;;;;;;4946905;28;20228;-72
2021/05/14 18:45:43;;;;;;;6.47;3.47;;;13.20;99.90;;;;;;4946687;28;20770;-72
2021/05/14 18:48:10;;;;;;;5.30;3.53;;;13.10;99.90;;;;;;4945880;28;20232;-72
2021/05/14 18:50:37;;;;;;;5.33;2.90;;;13.20;99.90;;;;;;4952908;29;20211;-72
2021/05/14 18:53:04;;;;;;;6.07;3.77;;;13.30;99.90;;;;;;4944911;29;20777;-71
2021/05/14 18:55:31;;;;;;;6.20;3.93;;;13.30;99.90;;;;;;4946290;28;20575;-72
2021/05/14 18:57:57;;;;;;;7.87;4.00;;;13.30;99.90;;;;;;4945360;28;20757;-71
2021/05/14 19:00:26;;;;;;;5.80;3.43;;;13.30;99.90;;;;;;4943649;28;20212;-71
2021/05/14 19:02:52;;;;;;;8.67;4.63;;;13.30;99.90;;;;;;4938720;28;20224;-71
2021/05/14 19:05:19;;;;;;;5.93;4.47;;;13.40;99.90;;;;;;4948574;28;20226;-71
2021/05/14 19:07:47;;;;;;;4.60;3.53;;;13.40;99.90;;;;;;4946786;28;20215;-71
2021/05/14 19:10:13;;;;;;;8.53;4.10;;;13.60;99.90;;;;;;4946035;29;20219;-72
2021/05/14 19:12:40;;;;;;;6.20;3.57;;;13.60;99.90;;;;;;4944118;28;20699;-71
2021/05/14 19:15:08;;;;;;;7.03;3.57;;;13.50;99.90;;;;;;4945819;28;20213;-71
2021/05/14 19:17:35;;;;;;;6.73;4.00;;;13.50;99.90;;;;;;4949154;29;20240;-71
2021/05/14 19:20:01;;;;;;;4.40;3.27;;;13.50;99.90;;;;;;4950897;28;20235;-71
2021/05/14 19:22:30;;;;;;;4.03;3.10;;;13.40;99.90;;;;;;4946188;28;20618;-71
2021/05/14 19:25:12;;;;;;;4.67;3.17;;;13.40;99.90;;;;;;4948251;28;20213;-71
2021/05/14 19:36:08;;;;;;;4.77;3.60;;;13.20;99.90;;;;;;4916289;29;20619;-71
2021/05/14 19:46:59;;;;;;;6.90;4.07;;;12.90;99.90;;;;;;4945767;28;20215;-70
2021/05/14 19:49:27;;;;;;;7.40;4.60;;;12.90;99.90;;;;;;4949059;28;20247;-70
2021/05/14 19:51:53;;;;;;;5.77;3.73;;;12.80;99.90;;;;;;4944930;28;20320;-70
2021/05/14 19:54:22;;;;;;;5.40;3.63;;;12.70;99.90;;;;;;4946308;28;20221;-70
2021/05/14 19:56:51;;;;;;;7.23;4.13;;;12.60;99.90;;;;;;4944547;28;20213;-70
2021/05/14 19:59:18;;;;;;;7.47;4.03;;;12.60;99.90;;;;;;4948020;28;20232;-70
2021/05/14 20:01:44;;;;;;;6.53;4.30;;;12.50;99.90;;;;;;4940199;29;20573;-70
2021/05/14 20:04:11;;;;;;;5.73;4.10;;;12.50;99.90;;;;;;4946747;28;20215;-70
2021/05/14 20:06:37;;;;;;;6.97;3.83;;;12.50;99.90;;;;;;4948599;28;20212;-70
2021/05/14 20:09:05;;;;;;;8.50;4.07;;;12.60;99.90;;;;;;4946230;28;20220;-70
2021/05/14 20:11:31;;;;;;;6.23;4.20;;;12.50;99.90;;;;;;4947178;28;20204;-71
2021/05/14 20:13:58;;;;;;;8.07;4.33;;;12.40;99.90;;;;;;4943982;28;20204;-70
2021/05/14 20:16:25;;;;;;;7.07;4.17;;;12.30;99.90;;;;;;4943401;28;20205;-70
2021/05/14 20:18:51;;;;;;;9.80;4.80;;;12.30;99.90;;;;;;4948006;28;20355;-71
2021/05/14 20:21:17;;;;;;;7.43;3.87;;;12.40;99.90;;;;;;4947348;29;20678;-70
2021/05/14 20:23:43;;;;;;;7.73;4.87;;;12.50;99.90;;;;;;4948789;28;20243;-71
2021/05/14 20:26:10;;;;;;;6.70;4.73;;;12.50;99.90;;;;;;4943039;28;20212;-70
2021/05/14 20:28:38;;;;;;;8.83;4.93;;;12.50;99.90;;;;;;4949418;28;20219;-70
2021/05/14 20:31:07;;;;;;;6.70;4.07;;;12.50;99.90;;;;;;4949567;28;20219;-71
2021/05/14 20:33:34;;;;;;;7.03;4.50;;;12.50;99.90;;;;;;4943494;28;20244;-71
2021/05/14 20:36:04;;;;;;;7.47;4.57;;;12.50;99.90;;;;;;4945222;28;20220;-71
2021/05/14 20:38:36;;;;;;;9.33;7.33;;;12.50;99.90;;;;;;4952347;28;20571;-70
2021/05/14 20:41:03;;;;;;;7.63;5.20;;;12.60;99.90;;;;;;4950440;28;20675;-70
2021/05/14 20:43:30;;;;;;;8.47;4.77;;;12.70;99.90;;;;;;4949612;29;20231;-71
2021/05/14 20:45:57;;;;;;;9.20;4.90;;;12.80;99.90;;;;;;4951907;28;20622;-70
2021/05/14 20:48:24;;;;;;;9.23;5.07;;;12.80;99.90;;;;;;4951921;28;20205;-71
2021/05/14 20:50:50;;;;;;;7.73;5.00;;;12.80;99.90;;;;;;4952158;28;20247;-70
2021/05/14 20:53:16;;;;;;;7.70;4.97;;;12.90;99.90;;;;;;4956618;29;20226;-70
2021/05/14 20:55:43;;;;;;;7.87;4.87;;;13.00;99.90;;;;;;4956818;29;20223;-71
2021/05/14 20:58:09;;;;;;;8.90;6.07;;;13.00;99.90;;;;;;4956965;29;20239;-71
2021/05/14 21:00:36;;;;;;;7.13;5.10;;;13.00;99.90;;;;;;4956908;29;20215;-71
2021/05/14 21:03:03;;;;;;;9.40;5.20;;;13.00;99.90;;;;;;4957013;29;20231;-71
2021/05/14 21:05:31;;;;;;;12.97;5.53;;;13.00;99.90;;;;;;4957021;29;20208;-70
2021/05/14 21:07:57;;;;;;;6.77;4.70;;;13.00;99.90;;;;;;4956977;29;20241;-71
2021/05/14 21:10:24;;;;;;;8.97;5.03;;;13.00;99.90;;;;;;4955804;29;20216;-71
2021/05/14 21:12:51;;;;;;;7.97;5.27;;;13.10;99.90;;;;;;4957013;29;20235;-71
2021/05/14 21:15:20;;;;;;;8.03;4.90;;;13.00;99.90;;;;;;4957180;29;20208;-70
2021/05/14 21:17:46;;;;;;;13.37;5.97;;;13.00;99.90;;;;;;4956703;29;20228;-70
2021/05/14 21:20:13;;;;;;;8.20;5.67;;;13.10;99.90;;;;;;4956764;29;20217;-70
2021/05/14 21:22:40;;;;;;;9.00;5.53;;;13.20;99.90;;;;;;4956607;29;20599;-71
2021/05/14 21:25:08;;;;;;;10.43;6.33;;;13.20;99.90;;;;;;4956656;29;20679;-70
2021/05/14 21:27:34;;;;;;;9.77;6.53;;;13.10;99.90;;;;;;4956610;29;20208;-70
2021/05/14 21:30:01;;;;;;;10.33;5.60;;;13.10;99.90;;;;;;4956601;29;20216;-70
2021/05/14 21:32:27;;;;;;;11.33;6.07;;;13.00;99.90;;;;;;4956685;29;20236;-71
2021/05/14 21:34:53;;;;;;;8.07;5.33;;;12.90;99.90;;;;;;4956587;29;20235;-71
2021/05/14 21:37:19;;;;;;;7.77;5.50;;;12.80;99.90;;;;;;4956394;28;20214;-72
2021/05/14 21:39:46;;;;;;;8.37;5.37;;;12.80;99.90;;;;;;4956428;29;20212;-72
2021/05/14 21:42:13;;;;;;;9.20;5.77;;;12.80;99.90;;;;;;4956333;29;20232;-71
2021/05/14 21:44:39;;;;;;;10.43;5.33;;;12.70;99.90;;;;;;4956612;29;20262;-71
2021/05/14 21:47:06;;;;;;;10.00;5.73;;;12.60;99.90;;;;;;4956488;29;20234;-71
2021/05/14 21:49:33;;;;;;;11.10;6.33;;;12.70;99.90;;;;;;4956322;29;20208;-71
2021/05/14 21:52:00;;;;;;;13.93;7.43;;;12.60;99.90;;;;;;4956216;29;20232;-71
2021/05/14 21:54:26;;;;;;;16.13;7.23;;;12.50;99.90;;;;;;4957529;29;20323;-71
2021/05/14 21:56:56;;;;;;;16.40;7.90;;;12.50;99.90;;;;;;4956745;29;20211;-71
2021/05/14 21:59:22;;;;;;;14.77;8.07;;;12.40;99.90;;;;;;4956600;29;20275;-72
2021/05/14 22:01:48;;;;;;;16.33;8.30;;;12.30;99.90;;;;;;4956609;29;20236;-71
2021/05/14 22:04:15;;;;;;;20.47;8.50;;;12.20;99.90;;;;;;4956459;29;20234;-71